sensor_id;sensor_type;location;lat;lon;timestamp;P1;durP1;ratioP1;P2;durP2;ratioP2
63807;SDS011;49961;43.970;22.868;2023-04-16T00:00:05;7.03;;;3.63;;
63807;SDS011;49961;43.970;22.868;2023-04-16T00:01:06;8.60;;;3.40;;
63807;SDS011;49961;43.970;22.868;2023-04-16T00:02:07;7.27;;;4.20;;
63807;SDS011;49961;43.970;22.868;2023-04-16T00:03:07;9.33;;;5.10;;
63807;SDS011;49961;43.970;22.868;2023-04-16T00:04:08;13.47;;;5.73;;
63807;SDS011;49961;43.970;22.868;2023-04-16T00:05:08;11.80;;;5.87;;
63807;SDS011;49961;43.970;22.868;2023-04-16T00:06:09;11.10;;;5.63;;
63807;SDS011;49961;43.970;22.868;2023-04-16T00:07:11;11.80;;;6.10;;
63807;SDS011;49961;43.970;22.868;2023-04-16T00:08:12;10.97;;;5.83;;
63807;SDS011;49961;43.970;22.868;2023-04-16T00:09:12;7.07;;;4.40;;
63807;SDS011;49961;43.970;22.868;2023-04-16T00:10:13;14.03;;;5.43;;
63807;SDS011;49961;43.970;22.868;2023-04-16T00:11:13;12.10;;;5.50;;
63807;SDS011;49961;43.970;22.868;2023-04-16T00:12:14;11.30;;;5.77;;
63807;SDS011;49961;43.970;22.868;2023-04-16T00:13:14;8.80;;;5.53;;
63807;SDS011;49961;43.970;22.868;2023-04-16T00:14:15;9.87;;;5.90;;
63807;SDS011;49961;43.970;22.868;2023-04-16T00:15:15;12.13;;;6.00;;
63807;SDS011;49961;43.970;22.868;2023-04-16T00:16:16;7.73;;;5.37;;
63807;SDS011;49961;43.970;22.868;2023-04-16T00:17:16;11.90;;;6.17;;
63807;SDS011;49961;43.970;22.868;2023-04-16T00:18:17;12.13;;;6.23;;
63807;SDS011;49961;43.970;22.868;2023-04-16T00:19:18;10.17;;;5.93;;
63807;SDS011;49961;43.970;22.868;2023-04-16T00:20:18;12.77;;;6.30;;
63807;SDS011;49961;43.970;22.868;2023-04-16T00:21:19;8.67;;;5.83;;
63807;SDS011;49961;43.970;22.868;2023-04-16T00:22:20;10.27;;;5.90;;
63807;SDS011;49961;43.970;22.868;2023-04-16T00:23:20;10.03;;;6.07;;
63807;SDS011;49961;43.970;22.868;2023-04-16T00:24:21;12.20;;;5.90;;
63807;SDS011;49961;43.970;22.868;2023-04-16T00:25:21;11.23;;;6.00;;
63807;SDS011;49961;43.970;22.868;2023-04-16T00:26:22;11.90;;;6.17;;
63807;SDS011;49961;43.970;22.868;2023-04-16T00:27:22;10.50;;;5.63;;
63807;SDS011;49961;43.970;22.868;2023-04-16T00:28:22;6.77;;;4.60;;
63807;SDS011;49961;43.970;22.868;2023-04-16T00:29:23;8.20;;;4.80;;
63807;SDS011;49961;43.970;22.868;2023-04-16T00:30:23;8.43;;;4.90;;
63807;SDS011;49961;43.970;22.868;2023-04-16T00:31:30;10.30;;;5.07;;
63807;SDS011;49961;43.970;22.868;2023-04-16T00:32:32;10.43;;;4.80;;
63807;SDS011;49961;43.970;22.868;2023-04-16T00:33:33;10.57;;;5.47;;
63807;SDS011;49961;43.970;22.868;2023-04-16T00:34:33;8.90;;;5.20;;
63807;SDS011;49961;43.970;22.868;2023-04-16T00:35:33;11.30;;;5.23;;
63807;SDS011;49961;43.970;22.868;2023-04-16T00:36:34;8.70;;;5.57;;
63807;SDS011;49961;43.970;22.868;2023-04-16T00:37:34;11.67;;;5.83;;
63807;SDS011;49961;43.970;22.868;2023-04-16T00:38:35;9.70;;;5.77;;
63807;SDS011;49961;43.970;22.868;2023-04-16T00:39:36;10.13;;;5.77;;
63807;SDS011;49961;43.970;22.868;2023-04-16T00:40:55;11.00;;;5.33;;
63807;SDS011;49961;43.970;22.868;2023-04-16T00:41:57;9.37;;;4.80;;
63807;SDS011;49961;43.970;22.868;2023-04-16T00:42:58;8.90;;;4.30;;
63807;SDS011;49961;43.970;22.868;2023-04-16T00:43:58;5.30;;;3.50;;
63807;SDS011;49961;43.970;22.868;2023-04-16T00:44:59;7.27;;;3.60;;
63807;SDS011;49961;43.970;22.868;2023-04-16T00:45:59;6.27;;;3.50;;
63807;SDS011;49961;43.970;22.868;2023-04-16T00:47:00;5.77;;;3.60;;
63807;SDS011;49961;43.970;22.868;2023-04-16T00:48:02;7.67;;;3.17;;
63807;SDS011;49961;43.970;22.868;2023-04-16T00:49:03;5.50;;;2.80;;
63807;SDS011;49961;43.970;22.868;2023-04-16T00:50:04;5.70;;;2.80;;
63807;SDS011;49961;43.970;22.868;2023-04-16T00:51:05;4.70;;;2.73;;
63807;SDS011;49961;43.970;22.868;2023-04-16T00:52:06;5.13;;;2.57;;
63807;SDS011;49961;43.970;22.868;2023-04-16T00:53:07;7.20;;;2.90;;
63807;SDS011;49961;43.970;22.868;2023-04-16T00:54:07;5.03;;;2.70;;
63807;SDS011;49961;43.970;22.868;2023-04-16T00:55:08;4.23;;;2.73;;
63807;SDS011;49961;43.970;22.868;2023-04-16T00:56:12;5.53;;;2.57;;
63807;SDS011;49961;43.970;22.868;2023-04-16T00:57:13;6.37;;;2.53;;
63807;SDS011;49961;43.970;22.868;2023-04-16T00:58:13;5.77;;;2.60;;
63807;SDS011;49961;43.970;22.868;2023-04-16T00:59:15;6.67;;;2.77;;
63807;SDS011;49961;43.970;22.868;2023-04-16T01:00:15;6.97;;;2.87;;
63807;SDS011;49961;43.970;22.868;2023-04-16T01:01:16;5.63;;;3.10;;
63807;SDS011;49961;43.970;22.868;2023-04-16T01:02:16;4.43;;;2.70;;
63807;SDS011;49961;43.970;22.868;2023-04-16T01:03:17;5.03;;;2.87;;
63807;SDS011;49961;43.970;22.868;2023-04-16T01:04:17;6.50;;;2.60;;
63807;SDS011;49961;43.970;22.868;2023-04-16T01:05:18;4.97;;;2.67;;
63807;SDS011;49961;43.970;22.868;2023-04-16T01:06:19;4.37;;;2.30;;
63807;SDS011;49961;43.970;22.868;2023-04-16T01:07:19;5.07;;;2.87;;
63807;SDS011;49961;43.970;22.868;2023-04-16T01:08:20;5.17;;;2.97;;
63807;SDS011;49961;43.970;22.868;2023-04-16T01:09:21;6.43;;;2.90;;
63807;SDS011;49961;43.970;22.868;2023-04-16T01:10:21;5.23;;;2.60;;
63807;SDS011;49961;43.970;22.868;2023-04-16T01:11:22;4.70;;;2.60;;
63807;SDS011;49961;43.970;22.868;2023-04-16T01:12:23;6.57;;;2.83;;
63807;SDS011;49961;43.970;22.868;2023-04-16T01:13:23;5.03;;;3.23;;
63807;SDS011;49961;43.970;22.868;2023-04-16T01:14:24;7.80;;;3.03;;
63807;SDS011;49961;43.970;22.868;2023-04-16T01:15:24;4.37;;;2.80;;
63807;SDS011;49961;43.970;22.868;2023-04-16T01:16:24;4.53;;;2.77;;
63807;SDS011;49961;43.970;22.868;2023-04-16T01:17:25;5.57;;;2.40;;
63807;SDS011;49961;43.970;22.868;2023-04-16T01:18:26;3.77;;;2.47;;
63807;SDS011;49961;43.970;22.868;2023-04-16T01:19:26;4.70;;;2.63;;
63807;SDS011;49961;43.970;22.868;2023-04-16T01:20:28;7.87;;;2.67;;
63807;SDS011;49961;43.970;22.868;2023-04-16T01:21:28;5.13;;;2.57;;
63807;SDS011;49961;43.970;22.868;2023-04-16T01:22:30;5.17;;;2.70;;
63807;SDS011;49961;43.970;22.868;2023-04-16T01:23:30;7.23;;;3.00;;
63807;SDS011;49961;43.970;22.868;2023-04-16T01:24:32;7.20;;;2.83;;
63807;SDS011;49961;43.970;22.868;2023-04-16T01:25:33;5.83;;;3.07;;
63807;SDS011;49961;43.970;22.868;2023-04-16T01:26:33;4.50;;;2.90;;
63807;SDS011;49961;43.970;22.868;2023-04-16T01:27:33;4.63;;;2.60;;
63807;SDS011;49961;43.970;22.868;2023-04-16T01:28:34;5.83;;;2.43;;
63807;SDS011;49961;43.970;22.868;2023-04-16T01:29:35;6.87;;;2.83;;
63807;SDS011;49961;43.970;22.868;2023-04-16T01:30:36;5.83;;;2.80;;
63807;SDS011;49961;43.970;22.868;2023-04-16T01:31:36;6.23;;;2.80;;
63807;SDS011;49961;43.970;22.868;2023-04-16T01:32:36;4.57;;;3.00;;
63807;SDS011;49961;43.970;22.868;2023-04-16T01:33:37;4.27;;;2.63;;
63807;SDS011;49961;43.970;22.868;2023-04-16T01:34:37;6.20;;;2.77;;
63807;SDS011;49961;43.970;22.868;2023-04-16T01:35:38;5.23;;;3.10;;
63807;SDS011;49961;43.970;22.868;2023-04-16T01:36:40;5.07;;;2.87;;
63807;SDS011;49961;43.970;22.868;2023-04-16T01:37:40;5.67;;;3.23;;
63807;SDS011;49961;43.970;22.868;2023-04-16T01:38:40;7.93;;;3.00;;
63807;SDS011;49961;43.970;22.868;2023-04-16T01:39:41;5.70;;;3.03;;
63807;SDS011;49961;43.970;22.868;2023-04-16T01:40:41;6.03;;;2.80;;
63807;SDS011;49961;43.970;22.868;2023-04-16T01:41:42;6.87;;;3.20;;
63807;SDS011;49961;43.970;22.868;2023-04-16T01:42:42;4.53;;;2.60;;
63807;SDS011;49961;43.970;22.868;2023-04-16T01:43:43;7.97;;;3.30;;
63807;SDS011;49961;43.970;22.868;2023-04-16T01:44:43;5.93;;;2.60;;
63807;SDS011;49961;43.970;22.868;2023-04-16T01:45:46;4.77;;;2.80;;
63807;SDS011;49961;43.970;22.868;2023-04-16T01:46:46;5.00;;;2.80;;
63807;SDS011;49961;43.970;22.868;2023-04-16T01:47:48;4.93;;;2.80;;
63807;SDS011;49961;43.970;22.868;2023-04-16T01:48:50;4.90;;;3.00;;
63807;SDS011;49961;43.970;22.868;2023-04-16T01:49:53;7.87;;;3.23;;
63807;SDS011;49961;43.970;22.868;2023-04-16T01:50:54;10.83;;;2.93;;
63807;SDS011;49961;43.970;22.868;2023-04-16T01:51:54;4.43;;;2.90;;
63807;SDS011;49961;43.970;22.868;2023-04-16T01:52:55;5.97;;;3.00;;
63807;SDS011;49961;43.970;22.868;2023-04-16T01:53:55;6.27;;;3.13;;
63807;SDS011;49961;43.970;22.868;2023-04-16T01:54:57;4.83;;;3.10;;
63807;SDS011;49961;43.970;22.868;2023-04-16T01:55:57;5.40;;;3.00;;
63807;SDS011;49961;43.970;22.868;2023-04-16T01:56:58;6.43;;;3.10;;
63807;SDS011;49961;43.970;22.868;2023-04-16T01:57:58;6.57;;;3.27;;
63807;SDS011;49961;43.970;22.868;2023-04-16T01:58:58;10.17;;;2.93;;
63807;SDS011;49961;43.970;22.868;2023-04-16T01:59:59;5.73;;;3.10;;
63807;SDS011;49961;43.970;22.868;2023-04-16T02:00:59;4.80;;;3.23;;
63807;SDS011;49961;43.970;22.868;2023-04-16T02:02:02;7.43;;;3.23;;
63807;SDS011;49961;43.970;22.868;2023-04-16T02:03:11;5.00;;;2.80;;
63807;SDS011;49961;43.970;22.868;2023-04-16T02:04:12;6.50;;;3.40;;
63807;SDS011;49961;43.970;22.868;2023-04-16T02:05:12;5.87;;;2.97;;
63807;SDS011;49961;43.970;22.868;2023-04-16T02:06:13;5.20;;;2.53;;
63807;SDS011;49961;43.970;22.868;2023-04-16T02:07:14;4.77;;;2.80;;
63807;SDS011;49961;43.970;22.868;2023-04-16T02:08:14;5.77;;;2.90;;
63807;SDS011;49961;43.970;22.868;2023-04-16T02:09:15;5.80;;;2.90;;
63807;SDS011;49961;43.970;22.868;2023-04-16T02:10:15;6.83;;;2.80;;
63807;SDS011;49961;43.970;22.868;2023-04-16T02:11:15;6.50;;;2.90;;
63807;SDS011;49961;43.970;22.868;2023-04-16T02:12:16;7.67;;;3.27;;
63807;SDS011;49961;43.970;22.868;2023-04-16T02:13:17;4.03;;;2.60;;
63807;SDS011;49961;43.970;22.868;2023-04-16T02:14:17;4.27;;;2.63;;
63807;SDS011;49961;43.970;22.868;2023-04-16T02:15:17;5.57;;;2.17;;
63807;SDS011;49961;43.970;22.868;2023-04-16T02:16:18;5.87;;;2.67;;
63807;SDS011;49961;43.970;22.868;2023-04-16T02:17:18;7.37;;;2.73;;
63807;SDS011;49961;43.970;22.868;2023-04-16T02:18:19;4.70;;;2.63;;
63807;SDS011;49961;43.970;22.868;2023-04-16T02:19:19;6.03;;;3.47;;
63807;SDS011;49961;43.970;22.868;2023-04-16T02:20:20;7.93;;;3.43;;
63807;SDS011;49961;43.970;22.868;2023-04-16T02:21:21;6.97;;;3.20;;
63807;SDS011;49961;43.970;22.868;2023-04-16T02:22:21;5.20;;;3.07;;
63807;SDS011;49961;43.970;22.868;2023-04-16T02:23:22;4.90;;;2.77;;
63807;SDS011;49961;43.970;22.868;2023-04-16T02:24:23;7.00;;;3.27;;
63807;SDS011;49961;43.970;22.868;2023-04-16T02:25:23;6.10;;;3.00;;
63807;SDS011;49961;43.970;22.868;2023-04-16T02:26:24;8.17;;;3.47;;
63807;SDS011;49961;43.970;22.868;2023-04-16T02:27:25;8.23;;;3.03;;
63807;SDS011;49961;43.970;22.868;2023-04-16T02:28:25;6.47;;;3.30;;
63807;SDS011;49961;43.970;22.868;2023-04-16T02:29:26;7.23;;;3.23;;
63807;SDS011;49961;43.970;22.868;2023-04-16T02:30:26;6.43;;;2.93;;
63807;SDS011;49961;43.970;22.868;2023-04-16T02:31:27;7.17;;;3.40;;
63807;SDS011;49961;43.970;22.868;2023-04-16T02:32:27;7.93;;;3.33;;
63807;SDS011;49961;43.970;22.868;2023-04-16T02:33:28;7.97;;;3.20;;
63807;SDS011;49961;43.970;22.868;2023-04-16T02:34:30;7.63;;;3.23;;
63807;SDS011;49961;43.970;22.868;2023-04-16T02:35:35;5.73;;;2.70;;
63807;SDS011;49961;43.970;22.868;2023-04-16T02:36:37;4.83;;;2.80;;
63807;SDS011;49961;43.970;22.868;2023-04-16T02:37:37;6.83;;;2.80;;
63807;SDS011;49961;43.970;22.868;2023-04-16T02:38:39;6.07;;;3.30;;
63807;SDS011;49961;43.970;22.868;2023-04-16T02:39:40;8.13;;;3.40;;
63807;SDS011;49961;43.970;22.868;2023-04-16T02:40:41;6.90;;;3.30;;
63807;SDS011;49961;43.970;22.868;2023-04-16T02:41:42;5.80;;;3.13;;
63807;SDS011;49961;43.970;22.868;2023-04-16T02:42:43;5.90;;;3.50;;
63807;SDS011;49961;43.970;22.868;2023-04-16T02:43:43;8.33;;;3.30;;
63807;SDS011;49961;43.970;22.868;2023-04-16T02:44:44;7.37;;;3.50;;
63807;SDS011;49961;43.970;22.868;2023-04-16T02:45:44;6.50;;;3.33;;
63807;SDS011;49961;43.970;22.868;2023-04-16T02:46:45;5.60;;;3.40;;
63807;SDS011;49961;43.970;22.868;2023-04-16T02:47:45;6.47;;;3.33;;
63807;SDS011;49961;43.970;22.868;2023-04-16T02:48:46;5.43;;;3.53;;
63807;SDS011;49961;43.970;22.868;2023-04-16T02:49:47;6.17;;;3.57;;
63807;SDS011;49961;43.970;22.868;2023-04-16T02:50:47;6.33;;;3.03;;
63807;SDS011;49961;43.970;22.868;2023-04-16T02:51:48;6.73;;;3.20;;
63807;SDS011;49961;43.970;22.868;2023-04-16T02:52:48;5.20;;;3.30;;
63807;SDS011;49961;43.970;22.868;2023-04-16T02:53:50;7.93;;;3.47;;
63807;SDS011;49961;43.970;22.868;2023-04-16T02:54:50;6.63;;;3.57;;
63807;SDS011;49961;43.970;22.868;2023-04-16T02:55:51;6.60;;;3.17;;
63807;SDS011;49961;43.970;22.868;2023-04-16T02:56:52;8.30;;;3.67;;
63807;SDS011;49961;43.970;22.868;2023-04-16T02:57:53;6.93;;;3.50;;
63807;SDS011;49961;43.970;22.868;2023-04-16T02:58:53;7.93;;;3.50;;
63807;SDS011;49961;43.970;22.868;2023-04-16T02:59:54;6.90;;;3.10;;
63807;SDS011;49961;43.970;22.868;2023-04-16T03:00:54;6.40;;;3.40;;
63807;SDS011;49961;43.970;22.868;2023-04-16T03:01:55;7.57;;;3.40;;
63807;SDS011;49961;43.970;22.868;2023-04-16T03:02:55;6.10;;;3.17;;
63807;SDS011;49961;43.970;22.868;2023-04-16T03:03:56;4.50;;;3.20;;
63807;SDS011;49961;43.970;22.868;2023-04-16T03:04:56;7.73;;;3.30;;
63807;SDS011;49961;43.970;22.868;2023-04-16T03:05:57;10.63;;;3.70;;
63807;SDS011;49961;43.970;22.868;2023-04-16T03:06:57;6.17;;;3.30;;
63807;SDS011;49961;43.970;22.868;2023-04-16T03:07:57;6.00;;;3.27;;
63807;SDS011;49961;43.970;22.868;2023-04-16T03:08:58;4.80;;;3.20;;
63807;SDS011;49961;43.970;22.868;2023-04-16T03:09:58;6.80;;;2.93;;
63807;SDS011;49961;43.970;22.868;2023-04-16T03:10:59;7.20;;;3.63;;
63807;SDS011;49961;43.970;22.868;2023-04-16T03:12:00;5.27;;;2.93;;
63807;SDS011;49961;43.970;22.868;2023-04-16T03:13:03;6.97;;;3.17;;
63807;SDS011;49961;43.970;22.868;2023-04-16T03:14:04;5.73;;;2.87;;
63807;SDS011;49961;43.970;22.868;2023-04-16T03:15:04;5.53;;;3.13;;
63807;SDS011;49961;43.970;22.868;2023-04-16T03:16:05;5.50;;;2.73;;
63807;SDS011;49961;43.970;22.868;2023-04-16T03:17:06;6.33;;;3.47;;
63807;SDS011;49961;43.970;22.868;2023-04-16T03:18:06;6.27;;;3.07;;
63807;SDS011;49961;43.970;22.868;2023-04-16T03:19:06;7.00;;;2.80;;
63807;SDS011;49961;43.970;22.868;2023-04-16T03:20:07;6.27;;;3.10;;
63807;SDS011;49961;43.970;22.868;2023-04-16T03:21:09;8.90;;;3.20;;
63807;SDS011;49961;43.970;22.868;2023-04-16T03:22:09;10.33;;;3.43;;
63807;SDS011;49961;43.970;22.868;2023-04-16T03:23:10;9.40;;;3.73;;
63807;SDS011;49961;43.970;22.868;2023-04-16T03:24:10;7.73;;;3.80;;
63807;SDS011;49961;43.970;22.868;2023-04-16T03:25:10;10.37;;;3.60;;
63807;SDS011;49961;43.970;22.868;2023-04-16T03:26:11;9.70;;;3.10;;
63807;SDS011;49961;43.970;22.868;2023-04-16T03:27:11;7.57;;;3.03;;
63807;SDS011;49961;43.970;22.868;2023-04-16T03:28:12;6.27;;;3.53;;
63807;SDS011;49961;43.970;22.868;2023-04-16T03:29:13;6.20;;;3.20;;
63807;SDS011;49961;43.970;22.868;2023-04-16T03:30:14;6.57;;;3.40;;
63807;SDS011;49961;43.970;22.868;2023-04-16T03:31:15;7.53;;;3.10;;
63807;SDS011;49961;43.970;22.868;2023-04-16T03:32:16;6.20;;;2.93;;
63807;SDS011;49961;43.970;22.868;2023-04-16T03:33:16;5.20;;;3.20;;
63807;SDS011;49961;43.970;22.868;2023-04-16T03:34:17;4.57;;;2.87;;
63807;SDS011;49961;43.970;22.868;2023-04-16T03:35:17;6.47;;;3.20;;
63807;SDS011;49961;43.970;22.868;2023-04-16T03:36:18;4.93;;;3.27;;
63807;SDS011;49961;43.970;22.868;2023-04-16T03:37:18;6.57;;;3.50;;
63807;SDS011;49961;43.970;22.868;2023-04-16T03:38:19;5.00;;;3.00;;
63807;SDS011;49961;43.970;22.868;2023-04-16T03:39:19;4.87;;;2.97;;
63807;SDS011;49961;43.970;22.868;2023-04-16T03:40:20;5.97;;;3.30;;
63807;SDS011;49961;43.970;22.868;2023-04-16T03:41:20;7.00;;;3.23;;
63807;SDS011;49961;43.970;22.868;2023-04-16T03:42:21;8.60;;;3.17;;
63807;SDS011;49961;43.970;22.868;2023-04-16T03:43:21;6.90;;;2.87;;
63807;SDS011;49961;43.970;22.868;2023-04-16T03:44:21;5.03;;;3.03;;
63807;SDS011;49961;43.970;22.868;2023-04-16T03:45:22;7.43;;;2.83;;
63807;SDS011;49961;43.970;22.868;2023-04-16T03:46:22;6.83;;;3.00;;
63807;SDS011;49961;43.970;22.868;2023-04-16T03:47:23;5.33;;;2.83;;
63807;SDS011;49961;43.970;22.868;2023-04-16T03:48:23;4.13;;;2.20;;
63807;SDS011;49961;43.970;22.868;2023-04-16T03:49:24;5.30;;;2.80;;
63807;SDS011;49961;43.970;22.868;2023-04-16T03:50:24;4.80;;;2.47;;
63807;SDS011;49961;43.970;22.868;2023-04-16T03:51:25;6.87;;;2.70;;
63807;SDS011;49961;43.970;22.868;2023-04-16T03:52:26;4.03;;;2.37;;
63807;SDS011;49961;43.970;22.868;2023-04-16T03:53:27;5.83;;;2.50;;
63807;SDS011;49961;43.970;22.868;2023-04-16T03:54:27;4.83;;;2.20;;
63807;SDS011;49961;43.970;22.868;2023-04-16T03:55:28;5.80;;;2.10;;
63807;SDS011;49961;43.970;22.868;2023-04-16T03:56:28;5.10;;;2.20;;
63807;SDS011;49961;43.970;22.868;2023-04-16T03:57:28;5.87;;;2.60;;
63807;SDS011;49961;43.970;22.868;2023-04-16T03:58:29;3.80;;;2.40;;
63807;SDS011;49961;43.970;22.868;2023-04-16T03:59:30;8.63;;;2.73;;
63807;SDS011;49961;43.970;22.868;2023-04-16T04:00:30;3.97;;;2.23;;
63807;SDS011;49961;43.970;22.868;2023-04-16T04:01:31;4.70;;;2.63;;
63807;SDS011;49961;43.970;22.868;2023-04-16T04:02:31;4.30;;;2.43;;
63807;SDS011;49961;43.970;22.868;2023-04-16T04:03:31;5.10;;;2.60;;
63807;SDS011;49961;43.970;22.868;2023-04-16T04:04:32;6.43;;;2.33;;
63807;SDS011;49961;43.970;22.868;2023-04-16T04:05:36;5.73;;;2.53;;
63807;SDS011;49961;43.970;22.868;2023-04-16T04:06:40;7.43;;;2.60;;
63807;SDS011;49961;43.970;22.868;2023-04-16T04:07:40;6.23;;;2.73;;
63807;SDS011;49961;43.970;22.868;2023-04-16T04:08:41;5.53;;;2.87;;
63807;SDS011;49961;43.970;22.868;2023-04-16T04:09:41;4.33;;;2.27;;
63807;SDS011;49961;43.970;22.868;2023-04-16T04:10:42;4.70;;;2.40;;
63807;SDS011;49961;43.970;22.868;2023-04-16T04:11:42;3.97;;;2.33;;
63807;SDS011;49961;43.970;22.868;2023-04-16T04:12:43;6.33;;;2.17;;
63807;SDS011;49961;43.970;22.868;2023-04-16T04:13:43;5.80;;;2.50;;
63807;SDS011;49961;43.970;22.868;2023-04-16T04:14:44;7.43;;;2.63;;
63807;SDS011;49961;43.970;22.868;2023-04-16T04:15:45;10.30;;;3.27;;
63807;SDS011;49961;43.970;22.868;2023-04-16T04:16:45;12.73;;;3.33;;
63807;SDS011;49961;43.970;22.868;2023-04-16T04:17:45;11.77;;;3.23;;
63807;SDS011;49961;43.970;22.868;2023-04-16T04:18:46;13.10;;;3.10;;
63807;SDS011;49961;43.970;22.868;2023-04-16T04:19:46;10.13;;;2.63;;
63807;SDS011;49961;43.970;22.868;2023-04-16T04:20:47;5.73;;;2.43;;
63807;SDS011;49961;43.970;22.868;2023-04-16T04:21:47;6.23;;;2.87;;
63807;SDS011;49961;43.970;22.868;2023-04-16T04:22:48;5.90;;;2.80;;
63807;SDS011;49961;43.970;22.868;2023-04-16T04:23:49;8.23;;;3.00;;
63807;SDS011;49961;43.970;22.868;2023-04-16T04:24:49;7.63;;;3.20;;
63807;SDS011;49961;43.970;22.868;2023-04-16T04:25:50;5.83;;;2.90;;
63807;SDS011;49961;43.970;22.868;2023-04-16T04:26:50;6.40;;;3.40;;
63807;SDS011;49961;43.970;22.868;2023-04-16T04:27:51;6.80;;;3.13;;
63807;SDS011;49961;43.970;22.868;2023-04-16T04:28:51;6.37;;;3.20;;
63807;SDS011;49961;43.970;22.868;2023-04-16T04:29:52;5.37;;;3.10;;
63807;SDS011;49961;43.970;22.868;2023-04-16T04:30:52;4.87;;;3.13;;
63807;SDS011;49961;43.970;22.868;2023-04-16T04:31:52;7.10;;;3.13;;
63807;SDS011;49961;43.970;22.868;2023-04-16T04:32:54;6.33;;;3.30;;
63807;SDS011;49961;43.970;22.868;2023-04-16T04:33:54;6.37;;;2.90;;
63807;SDS011;49961;43.970;22.868;2023-04-16T04:34:54;6.63;;;3.53;;
63807;SDS011;49961;43.970;22.868;2023-04-16T04:35:55;4.97;;;2.50;;
63807;SDS011;49961;43.970;22.868;2023-04-16T04:36:56;5.83;;;3.20;;
63807;SDS011;49961;43.970;22.868;2023-04-16T04:37:56;6.50;;;3.27;;
63807;SDS011;49961;43.970;22.868;2023-04-16T04:38:57;7.30;;;2.60;;
63807;SDS011;49961;43.970;22.868;2023-04-16T04:39:57;6.23;;;2.83;;
63807;SDS011;49961;43.970;22.868;2023-04-16T04:40:58;6.87;;;2.57;;
63807;SDS011;49961;43.970;22.868;2023-04-16T04:41:58;7.40;;;2.97;;
63807;SDS011;49961;43.970;22.868;2023-04-16T04:42:59;11.23;;;2.73;;
63807;SDS011;49961;43.970;22.868;2023-04-16T04:43:59;7.57;;;2.70;;
63807;SDS011;49961;43.970;22.868;2023-04-16T04:45:00;7.07;;;3.07;;
63807;SDS011;49961;43.970;22.868;2023-04-16T04:46:00;7.73;;;2.80;;
63807;SDS011;49961;43.970;22.868;2023-04-16T04:47:00;8.23;;;2.73;;
63807;SDS011;49961;43.970;22.868;2023-04-16T04:48:01;5.37;;;3.10;;
63807;SDS011;49961;43.970;22.868;2023-04-16T04:49:01;5.90;;;2.60;;
63807;SDS011;49961;43.970;22.868;2023-04-16T04:50:02;6.70;;;2.50;;
63807;SDS011;49961;43.970;22.868;2023-04-16T04:51:02;5.93;;;2.40;;
63807;SDS011;49961;43.970;22.868;2023-04-16T04:52:03;4.83;;;2.43;;
63807;SDS011;49961;43.970;22.868;2023-04-16T04:53:04;5.87;;;2.40;;
63807;SDS011;49961;43.970;22.868;2023-04-16T04:54:08;5.37;;;2.17;;
63807;SDS011;49961;43.970;22.868;2023-04-16T04:55:09;4.80;;;2.70;;
63807;SDS011;49961;43.970;22.868;2023-04-16T04:56:10;3.93;;;2.30;;
63807;SDS011;49961;43.970;22.868;2023-04-16T04:57:10;4.97;;;2.67;;
63807;SDS011;49961;43.970;22.868;2023-04-16T04:58:11;7.67;;;2.53;;
63807;SDS011;49961;43.970;22.868;2023-04-16T04:59:11;5.63;;;2.40;;
63807;SDS011;49961;43.970;22.868;2023-04-16T05:00:11;8.90;;;2.50;;
63807;SDS011;49961;43.970;22.868;2023-04-16T05:01:12;4.20;;;2.40;;
63807;SDS011;49961;43.970;22.868;2023-04-16T05:02:12;4.57;;;2.73;;
63807;SDS011;49961;43.970;22.868;2023-04-16T05:03:17;8.03;;;3.07;;
63807;SDS011;49961;43.970;22.868;2023-04-16T05:04:19;10.37;;;3.07;;
63807;SDS011;49961;43.970;22.868;2023-04-16T05:05:19;5.57;;;2.27;;
63807;SDS011;49961;43.970;22.868;2023-04-16T05:06:20;5.60;;;2.53;;
63807;SDS011;49961;43.970;22.868;2023-04-16T05:07:20;4.43;;;2.20;;
63807;SDS011;49961;43.970;22.868;2023-04-16T05:08:21;4.00;;;2.03;;
63807;SDS011;49961;43.970;22.868;2023-04-16T05:09:21;4.27;;;2.30;;
63807;SDS011;49961;43.970;22.868;2023-04-16T05:10:22;5.40;;;2.60;;
63807;SDS011;49961;43.970;22.868;2023-04-16T05:11:22;5.03;;;2.50;;
63807;SDS011;49961;43.970;22.868;2023-04-16T05:12:23;6.20;;;2.70;;
63807;SDS011;49961;43.970;22.868;2023-04-16T05:13:23;11.83;;;3.13;;
63807;SDS011;49961;43.970;22.868;2023-04-16T05:14:23;9.47;;;2.60;;
63807;SDS011;49961;43.970;22.868;2023-04-16T05:15:24;8.67;;;2.50;;
63807;SDS011;49961;43.970;22.868;2023-04-16T05:16:24;6.33;;;2.73;;
63807;SDS011;49961;43.970;22.868;2023-04-16T05:17:25;6.40;;;2.53;;
63807;SDS011;49961;43.970;22.868;2023-04-16T05:18:25;5.80;;;2.53;;
63807;SDS011;49961;43.970;22.868;2023-04-16T05:19:26;5.30;;;2.50;;
63807;SDS011;49961;43.970;22.868;2023-04-16T05:20:26;5.10;;;2.67;;
63807;SDS011;49961;43.970;22.868;2023-04-16T05:21:26;6.03;;;2.40;;
63807;SDS011;49961;43.970;22.868;2023-04-16T05:22:27;3.57;;;2.20;;
63807;SDS011;49961;43.970;22.868;2023-04-16T05:23:27;5.30;;;2.67;;
63807;SDS011;49961;43.970;22.868;2023-04-16T05:24:28;6.30;;;2.27;;
63807;SDS011;49961;43.970;22.868;2023-04-16T05:25:28;7.13;;;2.67;;
63807;SDS011;49961;43.970;22.868;2023-04-16T05:26:28;7.40;;;2.60;;
63807;SDS011;49961;43.970;22.868;2023-04-16T05:27:29;3.67;;;2.07;;
63807;SDS011;49961;43.970;22.868;2023-04-16T05:28:29;5.70;;;2.47;;
63807;SDS011;49961;43.970;22.868;2023-04-16T05:29:30;4.60;;;2.53;;
63807;SDS011;49961;43.970;22.868;2023-04-16T05:30:30;5.70;;;2.50;;
63807;SDS011;49961;43.970;22.868;2023-04-16T05:31:31;5.20;;;2.30;;
63807;SDS011;49961;43.970;22.868;2023-04-16T05:32:31;3.73;;;2.40;;
63807;SDS011;49961;43.970;22.868;2023-04-16T05:33:32;5.93;;;2.43;;
63807;SDS011;49961;43.970;22.868;2023-04-16T05:34:32;6.17;;;2.60;;
63807;SDS011;49961;43.970;22.868;2023-04-16T05:35:33;4.77;;;2.60;;
63807;SDS011;49961;43.970;22.868;2023-04-16T05:36:34;4.30;;;2.60;;
63807;SDS011;49961;43.970;22.868;2023-04-16T05:37:34;4.10;;;2.20;;
63807;SDS011;49961;43.970;22.868;2023-04-16T05:38:34;4.17;;;2.43;;
63807;SDS011;49961;43.970;22.868;2023-04-16T05:39:35;7.67;;;2.53;;
63807;SDS011;49961;43.970;22.868;2023-04-16T05:40:35;6.17;;;2.43;;
63807;SDS011;49961;43.970;22.868;2023-04-16T05:41:36;5.17;;;2.50;;
63807;SDS011;49961;43.970;22.868;2023-04-16T05:42:36;5.00;;;2.67;;
63807;SDS011;49961;43.970;22.868;2023-04-16T05:43:36;6.30;;;3.23;;
63807;SDS011;49961;43.970;22.868;2023-04-16T05:44:37;5.70;;;3.20;;
63807;SDS011;49961;43.970;22.868;2023-04-16T05:45:37;8.40;;;4.47;;
63807;SDS011;49961;43.970;22.868;2023-04-16T05:46:40;9.90;;;5.40;;
63807;SDS011;49961;43.970;22.868;2023-04-16T05:47:40;9.10;;;5.57;;
63807;SDS011;49961;43.970;22.868;2023-04-16T05:48:41;11.27;;;7.53;;
63807;SDS011;49961;43.970;22.868;2023-04-16T05:49:41;9.43;;;7.37;;
63807;SDS011;49961;43.970;22.868;2023-04-16T05:50:41;10.90;;;7.60;;
63807;SDS011;49961;43.970;22.868;2023-04-16T05:51:42;13.40;;;7.37;;
63807;SDS011;49961;43.970;22.868;2023-04-16T05:52:43;10.90;;;7.23;;
63807;SDS011;49961;43.970;22.868;2023-04-16T05:53:43;11.73;;;7.17;;
63807;SDS011;49961;43.970;22.868;2023-04-16T05:54:43;12.37;;;7.30;;
63807;SDS011;49961;43.970;22.868;2023-04-16T05:55:44;10.40;;;6.80;;
63807;SDS011;49961;43.970;22.868;2023-04-16T05:56:45;10.77;;;6.67;;
63807;SDS011;49961;43.970;22.868;2023-04-16T05:57:46;10.57;;;7.20;;
63807;SDS011;49961;43.970;22.868;2023-04-16T05:58:46;8.53;;;5.97;;
63807;SDS011;49961;43.970;22.868;2023-04-16T05:59:46;9.13;;;4.93;;